Time;durP1;ratioP1;P1;durP2;ratioP2;P2;SDS_P1;SDS_P2;PMS_P1;PMS_P2;Temp;Humidity;BMP_temperature;BMP_pressure;BME280_temperature;BME280_humidity;BME280_pressure;Samples;Min_cycle;Max_cycle;Signal;HPM_P1;HPM_P2
2023/06/28 00:01:14;;;;;;;14.75;5.40;;;;;;;19.93;66.67;100302.34;4998807;28;20129;-45
2023/06/28 00:03:41;;;;;;;11.70;5.35;;;;;;;19.94;67.03;100309.31;4998410;28;20485;-42
2023/06/28 00:06:08;;;;;;;12.38;5.07;;;;;;;19.93;66.69;100304.97;4997576;28;20056;-41
2023/06/28 00:08:34;;;;;;;14.15;5.90;;;;;;;19.92;66.65;100303.25;4997392;28;20046;-42
2023/06/28 00:11:01;;;;;;;15.27;4.65;;;;;;;19.91;66.84;100298.91;4983304;28;20055;-40
2023/06/28 00:13:27;;;;;;;13.93;4.78;;;;;;;19.91;67.07;100298.91;4990297;28;20045;-40
2023/06/28 00:15:54;;;;;;;13.32;4.97;;;;;;;19.91;66.73;100305.03;4998810;28;20042;-40
2023/06/28 00:18:21;;;;;;;12.23;4.80;;;;;;;19.89;66.99;100296.34;5001357;28;20750;-40
2023/06/28 00:20:47;;;;;;;15.10;6.15;;;;;;;19.88;66.82;100293.75;5002669;28;20551;-43
2023/06/28 00:23:14;;;;;;;13.40;5.50;;;;;;;19.87;66.84;100295.53;4990396;28;20057;-41
2023/06/28 00:25:43;;;;;;;14.32;5.40;;;;;;;19.88;66.68;100293.75;4986609;28;20046;-41
2023/06/28 00:28:11;;;;;;;13.90;4.78;;;;;;;19.86;67.02;100290.34;4976827;28;20050;-43
2023/06/28 00:30:40;;;;;;;11.05;4.78;;;;;;;19.85;67.18;100284.22;4983220;28;20043;-42
2023/06/28 00:33:08;;;;;;;14.00;5.18;;;;;;;19.85;67.06;100285.97;4978307;28;20133;-43
2023/06/28 00:35:37;;;;;;;11.75;5.05;;;;;;;19.85;66.77;100288.59;5003275;28;20046;-42
2023/06/28 00:38:05;;;;;;;12.48;4.43;;;;;;;19.87;66.54;100292.91;4981254;28;20090;-42
2023/06/28 00:40:33;;;;;;;11.25;4.88;;;;;;;19.87;67.04;100292.91;4983301;28;20059;-42
2023/06/28 00:43:01;;;;;;;15.90;5.43;;;;;;;19.86;66.79;100291.19;4982386;28;20081;-42
2023/06/28 00:45:29;;;;;;;13.93;4.97;;;;;;;19.88;66.95;100291.13;4980129;28;20195;-42
2023/06/28 00:47:58;;;;;;;13.32;4.90;;;;;;;19.87;67.02;100286.78;4983565;28;20051;-40
2023/06/28 00:50:28;;;;;;;11.43;4.72;;;;;;;19.87;67.16;100284.16;4983397;28;20053;-42
2023/06/28 00:52:58;;;;;;;16.63;5.72;;;;;;;19.86;67.00;100279.84;4977702;28;20843;-43
2023/06/28 00:55:26;;;;;;;13.23;4.97;;;;;;;19.86;66.79;100274.56;4975921;28;20042;-41
2023/06/28 00:57:54;;;;;;;11.00;4.63;;;;;;;19.85;66.35;100270.22;4981757;28;20051;-41
2023/06/28 01:00:22;;;;;;;10.40;4.80;;;;;;;19.83;66.78;100265.03;4982355;28;21033;-42
2023/06/28 01:02:50;;;;;;;12.65;4.70;;;;;;;19.83;66.78;100264.19;4974263;28;20050;-41
2023/06/28 01:05:19;;;;;;;14.07;5.07;;;;;;;19.81;67.27;100263.38;4980363;28;20113;-42
2023/06/28 01:07:47;;;;;;;16.27;5.28;;;;;;;19.80;67.29;100270.41;4986640;28;20050;-41
2023/06/28 01:10:17;;;;;;;11.93;4.78;;;;;;;19.80;67.00;100265.16;4982957;28;20061;-41
2023/06/28 01:12:44;;;;;;;11.10;5.13;;;;;;;19.80;67.30;100264.28;4982807;28;20433;-39
2023/06/28 01:15:11;;;;;;;12.38;4.78;;;;;;;19.80;67.10;100259.03;4977519;28;20061;-40
2023/06/28 01:17:38;;;;;;;13.73;5.60;;;;;;;19.76;66.99;100253.88;4980018;28;20065;-41
2023/06/28 01:20:05;;;;;;;14.30;5.30;;;;;;;19.75;67.17;100262.69;4982479;28;20050;-42
2023/06/28 01:22:33;;;;;;;11.73;4.93;;;;;;;19.73;67.25;100263.66;4981282;28;20050;-41
2023/06/28 01:25:00;;;;;;;13.23;6.28;;;;;;;19.72;67.14;100256.72;4980851;28;20113;-42
2023/06/28 01:27:27;;;;;;;18.52;6.15;;;;;;;19.71;67.51;100261.09;4983916;28;20704;-42
2023/06/28 01:29:56;;;;;;;16.40;6.03;;;;;;;19.70;67.30;100259.38;4978130;28;20050;-41
2023/06/28 01:32:23;;;;;;;12.95;5.60;;;;;;;19.70;67.51;100259.38;4982287;28;20120;-42
2023/06/28 01:34:51;;;;;;;15.15;5.88;;;;;;;19.69;67.40;100257.66;4981241;28;20046;-42
2023/06/28 01:37:19;;;;;;;14.60;5.68;;;;;;;19.66;67.88;100263.06;4986156;28;20049;-40
2023/06/28 01:39:46;;;;;;;15.50;5.38;;;;;;;19.64;67.60;100264.88;4982195;28;20057;-42
2023/06/28 01:42:14;;;;;;;13.10;5.97;;;;;;;19.62;67.58;100261.44;4978807;28;20064;-41
2023/06/28 01:44:40;;;;;;;21.20;6.45;;;;;;;19.60;67.62;100258.00;4980052;28;20117;-42
2023/06/28 01:47:07;;;;;;;16.50;6.07;;;;;;;19.57;67.48;100260.75;4973801;28;20487;-41
2023/06/28 01:49:36;;;;;;;13.63;5.65;;;;;;;19.56;67.42;100261.66;4980614;28;20070;-41
2023/06/28 01:52:04;;;;;;;14.45;5.82;;;;;;;19.53;67.57;100252.97;4981815;28;20065;-43
2023/06/28 01:54:32;;;;;;;13.85;6.05;;;;;;;19.53;68.10;100262.66;4974986;28;20050;-40
2023/06/28 01:56:59;;;;;;;13.27;6.50;;;;;;;19.52;67.80;100256.53;4982321;28;20050;-43
2023/06/28 01:59:26;;;;;;;15.23;6.40;;;;;;;19.54;68.28;100259.09;4995791;28;20085;-42
2023/06/28 02:01:52;;;;;;;14.88;5.30;;;;;;;19.52;67.91;100251.28;4975862;28;20062;-40
2023/06/28 02:04:19;;;;;;;15.57;5.85;;;;;;;19.52;67.88;100251.28;4980185;28;20046;-40
2023/06/28 02:06:46;;;;;;;13.23;6.03;;;;;;;19.53;67.94;100249.50;4976068;28;20065;-40
2023/06/28 02:09:13;;;;;;;11.85;4.97;;;;;;;19.51;68.09;100246.94;4981662;28;20626;-43
2023/06/28 02:11:39;;;;;;;11.82;4.88;;;;;;;19.49;68.20;100246.13;4984692;28;20551;-41
2023/06/28 02:14:06;;;;;;;11.80;4.55;;;;;;;19.50;68.55;100242.59;4981637;28;20125;-41
2023/06/28 02:16:32;;;;;;;12.93;4.70;;;;;;;19.50;68.06;100241.72;4979935;28;20061;-41
2023/06/28 02:19:01;;;;;;;16.00;5.57;;;;;;;19.50;68.32;100241.72;4978857;28;20057;-41
2023/06/28 02:21:27;;;;;;;14.20;5.40;;;;;;;19.48;68.42;100243.56;4980841;28;20046;-40
2023/06/28 02:23:54;;;;;;;15.07;4.85;;;;;;;19.49;68.58;100248.75;4976829;28;20072;-43
2023/06/28 02:26:21;;;;;;;14.10;5.10;;;;;;;19.49;68.59;100235.63;4979756;28;20579;-40
2023/06/28 02:28:48;;;;;;;9.57;4.40;;;;;;;19.49;68.19;100243.50;4980738;28;20050;-41
2023/06/28 02:31:16;;;;;;;11.38;4.45;;;;;;;19.47;68.68;100233.97;4976330;28;20046;-41
2023/06/28 02:33:43;;;;;;;10.65;4.45;;;;;;;19.44;68.50;100227.06;4974374;28;20051;-42
2023/06/28 02:36:12;;;;;;;10.00;4.50;;;;;;;19.41;68.20;100227.16;4979344;28;20069;-45
2023/06/28 02:38:39;;;;;;;16.55;4.47;;;;;;;19.36;68.60;100235.19;4980593;28;20050;-40
2023/06/28 02:41:05;;;;;;;11.65;5.15;;;;;;;19.34;68.22;100236.19;4982715;28;20046;-42
2023/06/28 02:43:32;;;;;;;10.63;5.15;;;;;;;19.29;68.62;100232.88;4977509;28;20438;-42
2023/06/28 02:45:59;;;;;;;12.15;4.82;;;;;;;19.26;68.71;100228.59;4978429;28;20065;-40
2023/06/28 02:48:25;;;;;;;14.07;5.00;;;;;;;19.23;68.63;100234.81;4977384;28;20137;-42
2023/06/28 02:50:52;;;;;;;11.95;4.07;;;;;;;19.18;68.37;100228.84;4981761;28;20097;-43
2023/06/28 02:53:18;;;;;;;13.05;4.72;;;;;;;19.14;68.54;100225.50;4979857;28;20054;-42
2023/06/28 02:55:45;;;;;;;10.63;4.38;;;;;;;19.12;68.71;100226.47;4980044;28;20061;-43
2023/06/28 02:58:12;;;;;;;10.75;4.32;;;;;;;19.08;69.00;100225.72;4979970;28;20076;-42
2023/06/28 03:00:39;;;;;;;13.05;4.35;;;;;;;19.04;68.95;100223.22;4978581;28;20054;-42
2023/06/28 03:03:09;;;;;;;9.65;4.60;;;;;;;19.00;68.38;100220.72;4981202;28;20074;-42
2023/06/28 03:05:36;;;;;;;11.43;4.53;;;;;;;18.96;69.16;100221.72;4977203;28;20383;-41
2023/06/28 03:08:04;;;;;;;11.80;4.60;;;;;;;18.93;68.78;100218.34;4979258;28;20051;-41
2023/06/28 03:10:30;;;;;;;13.98;4.50;;;;;;;18.91;69.31;100213.16;4996978;28;20046;-41
2023/06/28 03:12:57;;;;;;;11.82;4.35;;;;;;;18.87;69.12;100216.78;4982019;28;20534;-41
2023/06/28 03:15:24;;;;;;;12.90;4.55;;;;;;;18.86;68.98;100217.72;4975574;28;20058;-42
2023/06/28 03:17:51;;;;;;;9.93;4.30;;;;;;;18.81;69.17;100212.59;4970629;28;20568;-41
2023/06/28 03:20:17;;;;;;;11.32;4.93;;;;;;;18.81;69.01;100217.03;4981481;28;20439;-40
2023/06/28 03:22:44;;;;;;;10.30;5.25;;;;;;;18.77;68.75;100218.03;4978787;28;20188;-40
2023/06/28 03:25:11;;;;;;;9.73;5.18;;;;;;;18.74;69.78;100218.97;4978403;28;20054;-42
2023/06/28 03:27:37;;;;;;;12.23;5.05;;;;;;;18.72;69.03;100223.44;4978709;28;20050;-41
2023/06/28 03:30:05;;;;;;;10.50;4.25;;;;;;;18.71;68.85;100222.56;4978333;28;20667;-43
2023/06/28 03:32:31;;;;;;;13.38;4.53;;;;;;;18.67;69.39;100214.88;4974518;28;20046;-41
2023/06/28 03:34:58;;;;;;;11.85;4.72;;;;;;;18.64;69.69;100210.56;4981682;28;20147;-42
2023/06/28 03:37:25;;;;;;;11.13;4.18;;;;;;;18.62;69.61;100212.41;4989450;28;20136;-41
2023/06/28 03:39:52;;;;;;;11.82;4.75;;;;;;;18.60;69.52;100201.94;4998216;28;20053;-42
2023/06/28 03:42:18;;;;;;;11.27;4.72;;;;;;;18.60;69.96;100198.47;4997517;28;20390;-41
2023/06/28 03:44:45;;;;;;;12.30;5.30;;;;;;;18.58;69.16;100195.06;4995746;28;20585;-42
2023/06/28 03:47:11;;;;;;;9.40;4.07;;;;;;;18.56;69.50;100187.22;4999807;28;20547;-41
2023/06/28 03:49:39;;;;;;;8.00;3.47;;;;;;;18.56;69.52;100196.84;4982598;28;20046;-39
2023/06/28 03:52:07;;;;;;;12.35;4.35;;;;;;;18.56;69.92;100196.84;4986812;28;20410;-40
2023/06/28 03:54:33;;;;;;;8.32;4.07;;;;;;;18.54;70.02;100196.06;4982930;28;20050;-42
2023/06/28 03:57:00;;;;;;;13.23;4.25;;;;;;;18.52;70.43;100198.72;4980217;28;20081;-41
2023/06/28 03:59:27;;;;;;;9.48;3.90;;;;;;;18.53;69.53;100203.06;4985537;28;20161;-42
2023/06/28 04:01:54;;;;;;;11.02;4.20;;;;;;;18.52;70.07;100197.88;4981645;28;20043;-41
2023/06/28 04:04:20;;;;;;;13.00;4.28;;;;;;;18.50;70.08;100193.53;4984772;28;20157;-42
2023/06/28 04:06:48;;;;;;;9.02;3.92;;;;;;;18.50;70.31;100197.91;4983665;28;20057;-41
2023/06/28 04:09:15;;;;;;;9.55;4.30;;;;;;;18.50;70.18;100197.91;4982214;28;21401;-42
2023/06/28 04:11:42;;;;;;;9.13;3.58;;;;;;;18.47;70.75;100198.88;4983224;28;20082;-44
2023/06/28 04:14:09;;;;;;;9.27;3.75;;;;;;;18.47;70.11;100196.25;4978818;28;20053;-41
2023/06/28 04:16:35;;;;;;;14.00;4.30;;;;;;;18.46;70.15;100194.56;4976553;28;20051;-42
2023/06/28 04:19:04;;;;;;;9.45;4.28;;;;;;;18.46;70.38;100194.56;4982510;28;20058;-42
2023/06/28 04:21:32;;;;;;;11.15;4.15;;;;;;;18.44;70.74;100195.50;4976613;28;20046;-44
2023/06/28 04:23:59;;;;;;;10.38;4.18;;;;;;;18.43;70.36;100199.88;4987806;28;20087;-42
2023/06/28 04:26:27;;;;;;;12.32;4.10;;;;;;;18.42;70.39;100195.56;4992942;28;20401;-42
2023/06/28 04:28:53;;;;;;;8.35;3.47;;;;;;;18.43;70.18;100207.75;4992391;28;20054;-43
2023/06/28 04:31:20;;;;;;;9.82;4.10;;;;;;;18.43;70.66;100207.75;4998406;28;20064;-42
2023/06/28 04:33:47;;;;;;;10.73;3.90;;;;;;;18.43;70.94;100210.38;4995830;28;20407;-42
2023/06/28 04:36:14;;;;;;;10.90;4.15;;;;;;;18.45;70.44;100210.34;4992772;28;20062;-43
2023/06/28 04:38:41;;;;;;;13.60;4.45;;;;;;;18.46;70.23;100207.66;4993868;28;20501;-41
2023/06/28 04:41:08;;;;;;;10.77;3.55;;;;;;;18.48;70.60;100205.84;4991669;28;20069;-43
2023/06/28 04:43:40;;;;;;;9.45;3.70;;;;;;;18.54;70.36;100217.03;4995774;28;20057;-41
2023/06/28 04:46:11;;;;;;;11.07;4.10;;;;;;;18.56;70.48;100202.97;4996379;28;20096;-42
2023/06/28 04:48:40;;;;;;;10.10;3.80;;;;;;;18.62;71.17;100207.16;4996056;28;20045;-41
2023/06/28 04:51:06;;;;;;;9.75;3.42;;;;;;;18.66;70.95;100214.00;4999262;28;20064;-42
2023/06/28 04:53:33;;;;;;;9.60;3.75;;;;;;;18.71;70.93;100212.06;5000635;28;20053;-41
2023/06/28 04:56:00;;;;;;;8.27;3.95;;;;;;;18.77;70.71;100208.38;4997721;28;20088;-44
2023/06/28 04:58:27;;;;;;;10.07;4.30;;;;;;;18.82;70.88;100210.84;4995265;28;20410;-43
2023/06/28 05:00:57;;;;;;;9.98;4.20;;;;;;;18.85;70.31;100208.13;4986751;28;20600;-44
2023/06/28 05:03:28;;;;;;;10.88;4.57;;;;;;;18.87;70.37;100204.53;4977121;28;20054;-42
2023/06/28 05:05:56;;;;;;;9.85;3.67;;;;;;;18.88;70.42;100202.78;4985776;28;20058;-43
2023/06/28 05:08:22;;;;;;;9.02;3.80;;;;;;;18.91;70.63;100197.41;4980916;28;20050;-44
2023/06/28 05:10:49;;;;;;;7.55;3.60;;;;;;;18.99;71.19;100200.59;4978301;28;20064;-43
2023/06/28 05:13:16;;;;;;;10.55;4.07;;;;;;;19.11;70.81;100198.47;4978963;28;20101;-42
2023/06/28 05:15:43;;;;;;;11.15;4.25;;;;;;;19.23;70.74;100194.56;4983160;28;20054;-42
2023/06/28 05:18:09;;;;;;;9.43;4.22;;;;;;;19.35;71.29;100201.16;4977471;28;20046;-42
2023/06/28 05:20:36;;;;;;;10.38;4.20;;;;;;;19.47;71.31;100199.81;4976806;28;20153;-42
2023/06/28 05:25:48;;;;;;;8.98;4.22;;;;;;;19.70;70.64;100193.69;5011462;27;20422;-42
2023/06/28 05:28:15;;;;;;;8.27;4.00;;;;;;;19.85;70.59;100197.50;5008784;28;20399;-39
2023/06/28 05:30:43;;;;;;;8.98;4.32;;;;;;;20.00;70.43;100196.06;5003282;28;20056;-42
2023/06/28 05:33:10;;;;;;;9.88;4.18;;;;;;;20.18;70.17;100206.75;5003360;28;20099;-42
2023/06/28 05:35:37;;;;;;;10.25;4.10;;;;;;;20.36;70.11;100199.06;5008487;28;20050;-41
2023/06/28 05:38:05;;;;;;;9.27;4.00;;;;;;;20.53;70.03;100196.56;5007569;28;20421;-43
2023/06/28 05:40:33;;;;;;;10.57;3.85;;;;;;;20.65;69.30;100199.59;5006168;28;21880;-42
2023/06/28 05:43:00;;;;;;;12.38;5.00;;;;;;;20.77;69.08;100204.31;4990308;28;20455;-42
2023/06/28 05:45:29;;;;;;;10.52;4.70;;;;;;;20.88;68.90;100196.00;4977814;28;20543;-42
2023/06/28 05:47:56;;;;;;;12.55;4.15;;;;;;;20.94;68.76;100205.41;4985905;28;20057;-42
2023/06/28 05:50:23;;;;;;;13.45;5.15;;;;;;;20.90;67.93;100199.41;4995529;28;20355;-42
2023/06/28 05:52:50;;;;;;;9.25;3.83;;;;;;;20.90;68.37;100195.91;4995455;28;20533;-41
2023/06/28 05:55:17;;;;;;;9.77;5.13;;;;;;;20.89;68.68;100194.22;4995460;28;20492;-42
2023/06/28 05:57:45;;;;;;;12.98;4.55;;;;;;;20.85;67.79;100195.22;4995002;28;20050;-42
2023/06/28 06:00:12;;;;;;;10.52;4.85;;;;;;;20.83;68.09;100192.66;4996556;28;20054;-42
2023/06/28 06:02:39;;;;;;;12.48;5.18;;;;;;;20.85;68.06;100197.88;5002152;28;20141;-43
2023/06/28 06:05:07;;;;;;;11.20;4.95;;;;;;;20.84;67.95;100193.53;4997332;28;20085;-42
2023/06/28 06:07:39;;;;;;;10.35;4.95;;;;;;;20.84;67.75;100190.91;5001927;28;20069;-40
2023/06/28 06:10:07;;;;;;;11.25;4.90;;;;;;;;;;4999015;28;20478;-42
2023/06/28 06:12:34;;;;;;;10.75;4.40;;;;;;;20.79;67.49;100197.22;4998868;28;20063;-41
2023/06/28 06:15:01;;;;;;;11.25;4.32;;;;;;;20.77;67.79;100206.13;4995382;28;20053;-42
2023/06/28 06:17:27;;;;;;;10.60;5.10;;;;;;;20.76;68.10;100207.88;4997349;28;20057;-41
2023/06/28 06:19:54;;;;;;;12.35;5.15;;;;;;;20.78;67.72;100205.19;4997482;28;20498;-42
2023/06/28 06:22:21;;;;;;;11.63;4.45;;;;;;;20.83;68.18;100205.81;4997803;28;20050;-42
2023/06/28 06:24:47;;;;;;;10.93;4.45;;;;;;;20.87;67.65;100203.94;4995064;28;20061;-44
2023/06/28 06:27:14;;;;;;;12.80;5.30;;;;;;;20.91;68.09;100208.19;5001020;28;20045;-43
2023/06/28 06:29:41;;;;;;;10.95;4.45;;;;;;;20.95;67.66;100203.63;5001113;28;20046;-41
2023/06/28 06:32:08;;;;;;;9.45;4.47;;;;;;;20.99;67.79;100211.31;4995816;28;20050;-44
2023/06/28 06:34:34;;;;;;;9.35;4.30;;;;;;;21.06;68.00;100220.66;4997473;28;20053;-42
2023/06/28 06:37:01;;;;;;;10.85;4.65;;;;;;;21.13;67.46;100210.72;4985399;28;20046;-43
2023/06/28 06:39:28;;;;;;;14.02;5.05;;;;;;;21.22;67.59;100211.22;4984506;28;20057;-41
2023/06/28 06:41:54;;;;;;;9.60;4.68;;;;;;;21.28;67.43;100214.41;4985012;28;20061;-41
2023/06/28 06:44:21;;;;;;;11.20;5.47;;;;;;;21.29;67.58;100208.25;4985114;28;20244;-41
2023/06/28 06:46:47;;;;;;;11.30;4.68;;;;;;;21.34;67.02;100212.47;4985203;28;20429;-41
2023/06/28 06:49:18;;;;;;;12.10;4.90;;;;;;;21.37;67.35;100220.19;4987542;28;20038;-43
2023/06/28 06:51:45;;;;;;;10.68;4.47;;;;;;;21.42;67.49;100218.22;4984026;28;20077;-44
2023/06/28 06:54:12;;;;;;;8.88;5.03;;;;;;;21.46;67.26;100217.16;4991093;28;20053;-43
2023/06/28 06:56:39;;;;;;;9.32;4.82;;;;;;;21.51;67.26;100228.34;4978702;28;20066;-41
2023/06/28 06:59:05;;;;;;;9.30;4.57;;;;;;;21.56;67.01;100228.13;4985458;28;20050;-41
2023/06/28 07:01:34;;;;;;;12.57;4.82;;;;;;;21.59;67.02;100235.91;4984757;28;20093;-43
2023/06/28 07:04:01;;;;;;;9.52;4.05;;;;;;;21.61;66.47;100246.38;4986501;28;20477;-41
2023/06/28 07:06:27;;;;;;;9.68;4.32;;;;;;;21.62;66.91;100237.53;4994683;28;20135;-43
2023/06/28 07:08:54;;;;;;;9.73;3.60;;;;;;;21.61;66.66;100230.56;4994930;28;20073;-43
2023/06/28 07:11:21;;;;;;;11.05;4.70;;;;;;;21.59;66.15;100243.81;4988927;28;20458;-43
2023/06/28 07:13:47;;;;;;;9.23;3.55;;;;;;;21.58;66.42;100237.66;4996045;28;20054;-42
2023/06/28 07:16:14;;;;;;;9.52;3.95;;;;;;;21.56;66.56;100230.75;4990065;28;20042;-41
2023/06/28 07:18:41;;;;;;;10.00;3.78;;;;;;;21.56;66.57;100242.19;4995625;28;20057;-41
2023/06/28 07:21:08;;;;;;;10.50;4.47;;;;;;;21.56;66.48;100244.81;4998522;28;20117;-44
2023/06/28 07:23:34;;;;;;;10.63;4.53;;;;;;;21.58;66.38;100248.22;4993024;28;20049;-41
2023/06/28 07:26:01;;;;;;;7.63;4.15;;;;;;;21.58;66.44;100245.56;4996333;28;20054;-42
2023/06/28 07:28:27;;;;;;;8.48;3.60;;;;;;;21.57;66.76;100246.50;4989603;28;20050;-42
2023/06/28 07:30:57;;;;;;;7.15;3.58;;;;;;;21.56;66.50;100244.81;4997163;28;21301;-43
2023/06/28 07:33:23;;;;;;;10.50;4.88;;;;;;;21.56;66.51;100244.81;4997058;28;20047;-43
2023/06/28 07:35:51;;;;;;;8.45;3.85;;;;;;;21.60;66.33;100249.91;4993510;28;20058;-41
2023/06/28 07:38:18;;;;;;;8.25;4.40;;;;;;;21.61;66.41;100251.66;4988923;28;20046;-43
2023/06/28 07:40:46;;;;;;;8.02;3.80;;;;;;;21.63;66.86;100257.69;4995839;28;20515;-45
2023/06/28 07:43:13;;;;;;;10.57;5.03;;;;;;;21.65;66.28;100264.59;4986300;28;20054;-40
2023/06/28 07:45:40;;;;;;;8.57;4.22;;;;;;;21.66;66.24;100250.50;4982382;28;20054;-42
2023/06/28 07:48:08;;;;;;;11.38;4.45;;;;;;;21.68;66.68;100243.38;4983949;28;20050;-42
2023/06/28 07:50:35;;;;;;;9.07;3.30;;;;;;;21.71;66.46;100247.63;4989323;28;20053;-42
2023/06/28 07:53:02;;;;;;;8.45;3.97;;;;;;;21.70;66.47;100249.44;4990090;28;20054;-43
2023/06/28 07:55:29;;;;;;;7.20;4.13;;;;;;;21.72;66.70;100244.09;4995200;28;20410;-43
2023/06/28 07:57:57;;;;;;;8.45;4.32;;;;;;;21.76;66.74;100243.06;4987230;28;20053;-42
2023/06/28 08:00:25;;;;;;;9.75;4.32;;;;;;;21.82;66.86;100240.13;4977675;28;20046;-42
2023/06/28 08:02:52;;;;;;;38.53;5.68;;;;;;;21.87;66.41;100246.94;4986158;28;21501;-41
2023/06/28 08:05:19;;;;;;;10.45;4.57;;;;;;;21.89;66.92;100239.84;4986178;28;20042;-42
2023/06/28 08:07:46;;;;;;;10.27;4.38;;;;;;;21.94;66.20;100248.38;4988924;28;20046;-42
2023/06/28 08:10:13;;;;;;;7.50;3.65;;;;;;;21.96;66.17;100246.53;4986836;28;20065;-42
2023/06/28 08:12:40;;;;;;;8.25;3.85;;;;;;;22.00;66.99;100252.50;4980029;28;20079;-44
2023/06/28 08:15:07;;;;;;;8.23;4.45;;;;;;;22.03;66.16;100255.88;4992873;28;20085;-44
2023/06/28 08:17:34;;;;;;;6.35;3.38;;;;;;;22.03;65.72;100257.63;4985564;28;20056;-43
2023/06/28 08:20:01;;;;;;;7.97;3.30;;;;;;;22.04;65.93;100254.94;4985905;28;20073;-42
2023/06/28 08:22:28;;;;;;;8.20;3.70;;;;;;;22.08;66.09;100255.63;4992195;28;20054;-42
2023/06/28 08:24:54;;;;;;;7.95;3.60;;;;;;;22.12;66.48;100256.34;4995262;28;21152;-42
2023/06/28 08:27:21;;;;;;;8.57;4.18;;;;;;;22.10;65.78;100253.78;4990185;28;20056;-41
2023/06/28 08:29:48;;;;;;;7.95;3.60;;;;;;;22.11;65.69;100254.63;4987471;28;20057;-41
2023/06/28 08:32:14;;;;;;;8.10;3.25;;;;;;;22.09;65.90;100252.91;4989475;28;20129;-42
2023/06/28 08:34:41;;;;;;;8.63;3.95;;;;;;;22.07;66.44;100254.78;4981826;28;20049;-43
2023/06/28 08:37:08;;;;;;;7.93;3.88;;;;;;;22.07;65.78;100257.44;4983741;28;20129;-41
2023/06/28 08:39:38;;;;;;;9.57;3.65;;;;;;;22.09;65.66;100252.91;4994774;28;20584;-44
2023/06/28 08:42:05;;;;;;;8.13;4.10;;;;;;;22.11;65.72;100251.97;4996252;28;20077;-42
2023/06/28 08:44:33;;;;;;;9.48;3.97;;;;;;;22.12;65.55;100259.00;4986883;28;20105;-43
2023/06/28 08:47:00;;;;;;;8.88;3.20;;;;;;;22.11;66.51;100266.03;4995076;28;20054;-42
2023/06/28 08:49:28;;;;;;;9.70;4.20;;;;;;;22.14;66.47;100265.91;4992357;28;20774;-42
2023/06/28 08:51:55;;;;;;;7.63;4.32;;;;;;;22.18;66.28;100266.59;4989222;28;20050;-42
2023/06/28 08:54:24;;;;;;;7.07;4.03;;;;;;;22.19;65.59;100263.03;4983091;28;20101;-42
2023/06/28 08:56:51;;;;;;;8.75;4.43;;;;;;;22.20;65.75;100260.34;4986101;28;20414;-43
2023/06/28 08:59:37;;;;;;;7.32;3.33;;;;;;;22.27;65.78;100260.03;4984929;28;20046;-42
2023/06/28 09:02:06;;;;;;;7.00;3.33;;;;;;;22.29;65.74;100256.38;4979001;28;20054;-42
2023/06/28 09:04:33;;;;;;;8.88;3.70;;;;;;;22.31;65.46;100257.16;4984517;28;20052;-44
2023/06/28 09:07:01;;;;;;;7.78;4.00;;;;;;;22.32;65.17;100252.72;4988834;28;20046;-42
2023/06/28 09:09:29;;;;;;;8.55;3.92;;;;;;;22.31;65.31;100245.75;4983688;28;20816;-42
2023/06/28 09:11:55;;;;;;;9.77;3.88;;;;;;;22.33;65.37;100250.00;4985991;28;26517;-41
2023/06/28 09:14:22;;;;;;;7.55;3.47;;;;;;;22.34;65.51;100249.09;4989577;28;20405;-41
2023/06/28 09:16:48;;;;;;;7.95;3.40;;;;;;;22.36;65.25;100249.03;4996942;28;20132;-42
2023/06/28 09:19:15;;;;;;;8.25;3.20;;;;;;;22.38;65.88;100246.28;4986529;28;20046;-41
2023/06/28 09:21:42;;;;;;;6.38;3.45;;;;;;;22.39;65.39;100245.38;4989965;28;20054;-42
2023/06/28 09:24:11;;;;;;;7.60;3.28;;;;;;;22.41;65.38;100238.22;4986964;28;20053;-42
2023/06/28 09:26:40;;;;;;;;;;;;;;;22.29;65.75;100235.28;4984100;28;20050;-41
2023/06/28 09:29:11;;;;;;;7.88;3.08;;;;;;;22.44;64.94;100236.31;4989980;28;20485;-44
2023/06/28 09:31:42;;;;;;;7.38;3.20;;;;;;;22.49;65.94;100236.06;4985830;28;20047;-42
2023/06/28 09:34:09;;;;;;;7.88;3.67;;;;;;;22.54;65.31;100231.44;4988523;28;20391;-42
2023/06/28 09:36:37;;;;;;;7.20;2.83;;;;;;;22.56;64.87;100240.13;4985566;28;20070;-43
2023/06/28 09:39:05;;;;;;;7.65;3.40;;;;;;;22.62;65.19;100238.16;4988311;28;20050;-45
2023/06/28 09:41:39;;;;;;;7.70;3.45;;;;;;;22.64;65.71;100233.63;4985159;28;20055;-42
2023/06/28 09:44:09;;;;;;;5.90;2.72;;;;;;;22.69;65.40;100243.03;4983704;28;20598;-42
2023/06/28 09:46:42;;;;;;;7.10;3.10;;;;;;;22.72;65.49;100234.94;4983000;28;20133;-42
2023/06/28 09:49:25;;;;;;;8.10;3.67;;;;;;;22.75;65.22;100227.78;4994742;28;20092;-40
2023/06/28 09:54:34;;;;;;;9.20;3.58;;;;;;;22.87;65.02;100228.97;5044303;28;20390;-42
2023/06/28 09:57:02;;;;;;;7.03;3.22;;;;;;;22.89;64.60;100224.47;5018338;28;20229;-44
2023/06/28 09:59:33;;;;;;;6.47;2.85;;;;;;;22.93;64.37;100226.84;5015020;28;20144;-42
2023/06/28 10:02:06;;;;;;;6.25;2.78;;;;;;;22.97;64.86;100238.13;5020827;28;20053;-42
2023/06/28 10:04:35;;;;;;;4.93;2.90;;;;;;;22.98;64.78;100229.25;5027609;28;20049;-44
2023/06/28 10:07:03;;;;;;;5.75;3.15;;;;;;;23.02;64.47;100233.44;5020520;28;20065;-42
2023/06/28 10:12:16;;;;;;;5.18;2.92;;;;;;;23.10;64.49;100228.59;5046006;28;20391;-43
2023/06/28 10:14:49;;;;;;;6.22;2.63;;;;;;;23.18;64.56;100220.28;5000361;28;20050;-44
2023/06/28 10:17:16;;;;;;;7.47;3.78;;;;;;;23.29;64.71;100221.50;4999895;28;20053;-43
2023/06/28 10:19:44;;;;;;;10.00;5.00;;;;;;;23.35;64.39;100231.78;4995351;28;20053;-43
2023/06/28 10:22:13;;;;;;;8.52;4.00;;;;;;;23.42;63.62;100227.00;4997290;28;20058;-43
2023/06/28 10:24:42;;;;;;;7.65;4.18;;;;;;;23.46;63.55;100233.81;5000459;28;20528;-45
2023/06/28 10:27:09;;;;;;;5.20;2.58;;;;;;;23.51;63.36;100231.81;5003434;28;20130;-43
2023/06/28 10:29:39;;;;;;;4.57;2.75;;;;;;;23.56;63.54;100224.47;5021908;28;20053;-44
2023/06/28 10:32:07;;;;;;;5.43;3.88;;;;;;;23.64;63.50;100231.13;4999000;28;20443;-43
2023/06/28 10:34:35;;;;;;;7.40;2.80;;;;;;;23.71;63.25;100232.50;5014648;28;20520;-44
2023/06/28 10:37:02;;;;;;;5.43;2.95;;;;;;;23.77;63.04;100232.16;5017474;28;20141;-47
2023/06/28 10:39:34;;;;;;;5.63;2.92;;;;;;;23.82;63.27;100224.84;5012698;28;20049;-45
2023/06/28 10:42:01;;;;;;;6.53;2.85;;;;;;;23.88;63.44;100224.47;5018011;28;20072;-44
2023/06/28 10:44:28;;;;;;;6.40;3.83;;;;;;;24.00;63.67;100222.94;5017605;28;20099;-44
2023/06/28 10:47:12;;;;;;;6.45;2.92;;;;;;;24.07;62.93;100223.44;5021890;28;20132;-41
2023/06/28 10:49:41;;;;;;;19.48;14.85;;;;;;;24.16;62.39;100226.53;5017892;28;20064;-44
2023/06/28 10:52:17;;;;;;;7.50;5.22;;;;;;;24.19;62.46;100218.41;5022084;28;20300;-45
2023/06/28 10:54:46;;;;;;;8.02;4.97;;;;;;;24.24;62.43;100225.16;5017999;28;20065;-43
2023/06/28 10:57:14;;;;;;;6.70;3.85;;;;;;;24.27;62.56;100224.13;5016596;28;20049;-42
2023/06/28 10:59:42;;;;;;;4.97;2.45;;;;;;;24.34;62.18;100216.66;5021621;28;20057;-44
2023/06/28 11:02:08;;;;;;;4.63;2.72;;;;;;;24.37;61.82;100222.66;5020791;28;20100;-43
2023/06/28 11:04:50;;;;;;;5.35;3.28;;;;;;;24.39;62.45;100223.41;5021800;28;20053;-41
2023/06/28 11:07:21;;;;;;;5.63;3.15;;;;;;;24.46;62.06;100223.91;5017900;28;20128;-41
2023/06/28 11:10:09;;;;;;;6.18;2.92;;;;;;;24.47;62.00;100214.16;5033727;28;20057;-43
2023/06/28 11:12:38;;;;;;;5.78;3.42;;;;;;;24.56;61.94;100213.63;5026276;28;20037;-44
2023/06/28 11:15:12;;;;;;;6.22;2.53;;;;;;;24.62;61.51;100217.72;5023457;28;20057;-41
2023/06/28 11:17:39;;;;;;;5.68;3.25;;;;;;;24.68;61.64;100211.19;5018213;28;20053;-44
2023/06/28 11:20:10;;;;;;;5.60;3.08;;;;;;;24.81;61.63;100221.88;5024678;28;20132;-42
2023/06/28 11:22:53;;;;;;;6.85;3.28;;;;;;;24.94;61.75;100219.38;5014837;28;20088;-42
2023/06/28 11:25:27;;;;;;;9.05;2.92;;;;;;;25.12;61.20;100215.63;5009911;28;20077;-44
2023/06/28 11:27:56;;;;;;;5.55;2.72;;;;;;;25.21;61.16;100213.34;5007733;28;20050;-45
2023/06/28 11:30:47;;;;;;;6.00;3.03;;;;;;;25.29;61.17;100222.53;5005472;28;20049;-42
2023/06/28 11:33:15;;;;;;;5.68;3.00;;;;;;;25.40;60.51;100210.41;5008619;28;20057;-45